sensor_id;sensor_type;location;lat;lon;timestamp;pressure;altitude;pressure_sealevel;temperature;humidity
46768;BME280;69007;48.978;18.066;2024-01-30T00:01:11;99584.91;;;-0.07;100.00
46768;BME280;69007;48.978;18.066;2024-01-30T00:03:36;99586.84;;;0.01;100.00
46768;BME280;69007;48.978;18.066;2024-01-30T00:06:03;99582.31;;;0.01;100.00
46768;BME280;69007;48.978;18.066;2024-01-30T00:08:29;99572.19;;;-0.05;100.00
46768;BME280;69007;48.978;18.066;2024-01-30T00:10:54;99534.25;;;-0.19;100.00
46768;BME280;69007;48.978;18.066;2024-01-30T00:13:19;99585.69;;;0.03;100.00
46768;BME280;69007;48.978;18.066;2024-01-30T00:15:45;99562.59;;;0.02;100.00
46768;BME280;69007;48.978;18.066;2024-01-30T00:18:10;99552.78;;;-0.07;100.00
46768;BME280;69007;48.978;18.066;2024-01-30T00:20:36;99562.16;;;0.07;100.00
46768;BME280;69007;48.978;18.066;2024-01-30T00:23:01;99546.16;;;-0.03;100.00
46768;BME280;69007;48.978;18.066;2024-01-30T00:25:27;99545.13;;;-0.02;100.00
46768;BME280;69007;48.978;18.066;2024-01-30T00:27:52;99577.88;;;0.10;100.00
46768;BME280;69007;48.978;18.066;2024-01-30T00:30:18;99548.81;;;-0.03;100.00
46768;BME280;69007;48.978;18.066;2024-01-30T00:32:43;99555.41;;;0.03;100.00
46768;BME280;69007;48.978;18.066;2024-01-30T00:35:08;99550.88;;;0.03;100.00
46768;BME280;69007;48.978;18.066;2024-01-30T00:37:35;99574.63;;;0.16;100.00
46768;BME280;69007;48.978;18.066;2024-01-30T00:40:00;99575.44;;;0.16;100.00
46768;BME280;69007;48.978;18.066;2024-01-30T00:42:26;99560.47;;;0.06;100.00
46768;BME280;69007;48.978;18.066;2024-01-30T00:44:51;99548.81;;;-0.03;100.00
46768;BME280;69007;48.978;18.066;2024-01-30T00:47:16;99566.56;;;-0.02;100.00
46768;BME280;69007;48.978;18.066;2024-01-30T00:49:42;99562.94;;;-0.11;100.00
46768;BME280;69007;48.978;18.066;2024-01-30T00:52:08;99560.56;;;-0.14;100.00
46768;BME280;69007;48.978;18.066;2024-01-30T00:54:33;99561.41;;;-0.13;100.00
46768;BME280;69007;48.978;18.066;2024-01-30T00:56:58;99582.47;;;-0.01;100.00
46768;BME280;69007;48.978;18.066;2024-01-30T00:59:24;99584.00;;;0.02;100.00
46768;BME280;69007;48.978;18.066;2024-01-30T01:01:50;99554.91;;;-0.11;100.00
46768;BME280;69007;48.978;18.066;2024-01-30T01:04:16;99581.63;;;-0.01;100.00
46768;BME280;69007;48.978;18.066;2024-01-30T01:06:41;99548.59;;;-0.10;100.00
46768;BME280;69007;48.978;18.066;2024-01-30T01:09:10;99586.50;;;0.13;100.00
46768;BME280;69007;48.978;18.066;2024-01-30T01:11:36;99560.00;;;0.10;100.00
46768;BME280;69007;48.978;18.066;2024-01-30T01:14:03;99538.13;;;-0.03;100.00
46768;BME280;69007;48.978;18.066;2024-01-30T01:16:28;99575.00;;;0.21;100.00
46768;BME280;69007;48.978;18.066;2024-01-30T01:18:53;99554.97;;;0.07;100.00
46768;BME280;69007;48.978;18.066;2024-01-30T01:21:19;99574.63;;;0.16;100.00
46768;BME280;69007;48.978;18.066;2024-01-30T01:23:44;99573.50;;;0.18;100.00
46768;BME280;69007;48.978;18.066;2024-01-30T01:26:09;99565.75;;;0.15;100.00
46768;BME280;69007;48.978;18.066;2024-01-30T01:28:35;99559.16;;;0.10;100.00
46768;BME280;69007;48.978;18.066;2024-01-30T01:31:00;99569.78;;;0.20;100.00
46768;BME280;69007;48.978;18.066;2024-01-30T01:33:31;99551.97;;;0.10;100.00
46768;BME280;69007;48.978;18.066;2024-01-30T01:35:58;99542.94;;;0.11;100.00
46768;BME280;69007;48.978;18.066;2024-01-30T01:38:23;99574.16;;;0.21;100.00
46768;BME280;69007;48.978;18.066;2024-01-30T01:40:48;99550.97;;;0.11;100.00
46768;BME280;69007;48.978;18.066;2024-01-30T01:43:14;99571.78;;;0.17;100.00
46768;BME280;69007;48.978;18.066;2024-01-30T01:45:39;99576.00;;;0.20;100.00
46768;BME280;69007;48.978;18.066;2024-01-30T01:48:05;99567.28;;;0.18;100.00
46768;BME280;69007;48.978;18.066;2024-01-30T01:50:30;99560.25;;;0.17;100.00
46768;BME280;69007;48.978;18.066;2024-01-30T01:52:56;99563.31;;;0.22;100.00
46768;BME280;69007;48.978;18.066;2024-01-30T01:55:22;99537.34;;;0.05;100.00
46768;BME280;69007;48.978;18.066;2024-01-30T01:57:49;99551.59;;;0.05;100.00
46768;BME280;69007;48.978;18.066;2024-01-30T02:00:15;99546.00;;;-0.02;100.00
46768;BME280;69007;48.978;18.066;2024-01-30T02:02:41;99561.13;;;0.08;100.00
46768;BME280;69007;48.978;18.066;2024-01-30T02:05:08;99559.63;;;0.05;100.00
46768;BME280;69007;48.978;18.066;2024-01-30T02:07:34;99572.38;;;0.11;100.00
46768;BME280;69007;48.978;18.066;2024-01-30T02:10:00;99539.50;;;0.01;100.00
46768;BME280;69007;48.978;18.066;2024-01-30T02:12:25;99557.19;;;0.12;100.00
46768;BME280;69007;48.978;18.066;2024-01-30T02:14:50;99559.72;;;0.13;100.00
46768;BME280;69007;48.978;18.066;2024-01-30T02:17:16;99556.88;;;0.15;100.00
46768;BME280;69007;48.978;18.066;2024-01-30T02:19:41;99553.78;;;0.10;100.00
46768;BME280;69007;48.978;18.066;2024-01-30T02:22:07;99566.44;;;0.17;100.00
46768;BME280;69007;48.978;18.066;2024-01-30T02:24:33;99556.47;;;0.10;100.00
46768;BME280;69007;48.978;18.066;2024-01-30T02:26:58;99548.19;;;0.03;100.00
46768;BME280;69007;48.978;18.066;2024-01-30T02:29:24;99574.09;;;0.12;100.00
46768;BME280;69007;48.978;18.066;2024-01-30T02:31:49;99557.09;;;0.04;100.00
46768;BME280;69007;48.978;18.066;2024-01-30T02:34:15;99539.34;;;0.03;100.00
46768;BME280;69007;48.978;18.066;2024-01-30T02:36:43;99549.44;;;0.09;100.00
46768;BME280;69007;48.978;18.066;2024-01-30T02:39:09;99539.34;;;0.03;100.00
46768;BME280;69007;48.978;18.066;2024-01-30T02:41:35;99534.81;;;0.03;100.00
46768;BME280;69007;48.978;18.066;2024-01-30T02:44:00;99556.88;;;0.15;100.00
46768;BME280;69007;48.978;18.066;2024-01-30T02:46:26;99537.66;;;0.02;100.00
46768;BME280;69007;48.978;18.066;2024-01-30T02:48:51;99534.13;;;0.01;100.00
46768;BME280;69007;48.978;18.066;2024-01-30T02:51:17;99558.03;;;0.12;100.00
46768;BME280;69007;48.978;18.066;2024-01-30T02:53:42;99558.84;;;0.13;100.00
46768;BME280;69007;48.978;18.066;2024-01-30T02:56:07;99560.41;;;0.15;100.00
46768;BME280;69007;48.978;18.066;2024-01-30T02:58:35;99567.03;;;0.11;100.00
46768;BME280;69007;48.978;18.066;2024-01-30T03:01:01;99540.16;;;0.03;100.00
46768;BME280;69007;48.978;18.066;2024-01-30T03:03:27;99533.59;;;-0.03;100.00
46768;BME280;69007;48.978;18.066;2024-01-30T03:05:52;99534.28;;;-0.01;100.00
46768;BME280;69007;48.978;18.066;2024-01-30T03:08:17;99540.75;;;0.07;100.00
46768;BME280;69007;48.978;18.066;2024-01-30T03:10:43;99545.63;;;0.11;100.00
46768;BME280;69007;48.978;18.066;2024-01-30T03:13:08;99537.97;;;-0.02;100.00
46768;BME280;69007;48.978;18.066;2024-01-30T03:15:33;99523.88;;;-0.04;100.00
46768;BME280;69007;48.978;18.066;2024-01-30T03:17:59;99559.72;;;0.13;100.00
46768;BME280;69007;48.978;18.066;2024-01-30T03:20:24;99552.50;;;0.14;100.00
46768;BME280;69007;48.978;18.066;2024-01-30T03:22:49;99548.28;;;0.11;100.00
46768;BME280;69007;48.978;18.066;2024-01-30T03:25:15;99547.91;;;0.06;100.00
46768;BME280;69007;48.978;18.066;2024-01-30T03:27:40;99545.53;;;0.03;100.00
46768;BME280;69007;48.978;18.066;2024-01-30T03:30:06;99550.59;;;0.06;100.00
46768;BME280;69007;48.978;18.066;2024-01-30T03:32:31;99532.84;;;0.05;100.00
46768;BME280;69007;48.978;18.066;2024-01-30T03:34:57;99544.53;;;0.04;100.00
46768;BME280;69007;48.978;18.066;2024-01-30T03:37:23;99536.22;;;0.07;100.00
46768;BME280;69007;48.978;18.066;2024-01-30T03:39:48;99548.69;;;0.16;100.00
46768;BME280;69007;48.978;18.066;2024-01-30T03:42:14;99519.78;;;0.02;100.00
46768;BME280;69007;48.978;18.066;2024-01-30T03:44:39;99529.56;;;0.11;100.00
46768;BME280;69007;48.978;18.066;2024-01-30T03:47:04;99510.78;;;-0.07;100.00
46768;BME280;69007;48.978;18.066;2024-01-30T03:49:30;99535.53;;;0.05;100.00
46768;BME280;69007;48.978;18.066;2024-01-30T03:51:55;99539.50;;;0.01;100.00
46768;BME280;69007;48.978;18.066;2024-01-30T03:54:21;99538.50;;;0.02;100.00
46768;BME280;69007;48.978;18.066;2024-01-30T03:56:46;99540.22;;;-0.07;100.00
46768;BME280;69007;48.978;18.066;2024-01-30T03:59:12;99549.03;;;-0.14;100.00
46768;BME280;69007;48.978;18.066;2024-01-30T04:01:37;99537.47;;;-0.15;100.00
46768;BME280;69007;48.978;18.066;2024-01-30T04:04:02;99549.13;;;-0.06;100.00
46768;BME280;69007;48.978;18.066;2024-01-30T04:06:28;99556.72;;;-0.02;100.00
46768;BME280;69007;48.978;18.066;2024-01-30T04:08:53;99520.19;;;-0.21;100.00
46768;BME280;69007;48.978;18.066;2024-01-30T04:11:19;99514.53;;;-0.17;100.00
46768;BME280;69007;48.978;18.066;2024-01-30T04:13:45;99538.41;;;-0.06;100.00
46768;BME280;69007;48.978;18.066;2024-01-30T04:16:22;99563.19;;;-0.04;100.00
46768;BME280;69007;48.978;18.066;2024-01-30T04:18:48;99504.47;;;-0.33;100.00
46768;BME280;69007;48.978;18.066;2024-01-30T04:21:13;99529.19;;;-0.22;100.00
46768;BME280;69007;48.978;18.066;2024-01-30T04:23:40;99553.47;;;-0.05;100.00
46768;BME280;69007;48.978;18.066;2024-01-30T04:26:05;99514.84;;;-0.21;100.00
46768;BME280;69007;48.978;18.066;2024-01-30T04:28:30;99544.91;;;-0.09;100.00
46768;BME280;69007;48.978;18.066;2024-01-30T04:30:56;99539.31;;;-0.15;100.00
46768;BME280;69007;48.978;18.066;2024-01-30T04:33:21;99518.75;;;-0.43;100.00
46768;BME280;69007;48.978;18.066;2024-01-30T04:35:47;99544.41;;;-0.22;100.00
46768;BME280;69007;48.978;18.066;2024-01-30T04:38:12;99563.00;;;-0.21;100.00
46768;BME280;69007;48.978;18.066;2024-01-30T04:40:38;99530.41;;;-0.34;100.00
46768;BME280;69007;48.978;18.066;2024-01-30T04:43:04;99557.66;;;-0.21;100.00
46768;BME280;69007;48.978;18.066;2024-01-30T04:45:29;99560.91;;;-0.27;100.00
46768;BME280;69007;48.978;18.066;2024-01-30T04:47:54;99534.34;;;-0.38;100.00
46768;BME280;69007;48.978;18.066;2024-01-30T04:50:20;99563.00;;;-0.21;100.00
46768;BME280;69007;48.978;18.066;2024-01-30T04:52:45;99569.03;;;-0.19;100.00
46768;BME280;69007;48.978;18.066;2024-01-30T04:55:10;99574.38;;;-0.19;100.00
46768;BME280;69007;48.978;18.066;2024-01-30T04:57:36;99545.16;;;-0.30;100.00
46768;BME280;69007;48.978;18.066;2024-01-30T05:00:02;99561.25;;;-0.12;100.00
46768;BME280;69007;48.978;18.066;2024-01-30T05:02:27;99578.16;;;-0.11;100.00
46768;BME280;69007;48.978;18.066;2024-01-30T05:04:53;99544.69;;;-0.25;100.00
46768;BME280;69007;48.978;18.066;2024-01-30T05:07:18;99540.66;;;-0.29;100.00
46768;BME280;69007;48.978;18.066;2024-01-30T05:09:44;99561.88;;;-0.18;100.00
46768;BME280;69007;48.978;18.066;2024-01-30T05:12:09;99550.63;;;-0.31;100.00
46768;BME280;69007;48.978;18.066;2024-01-30T05:14:34;99562.31;;;-0.23;100.00
46768;BME280;69007;48.978;18.066;2024-01-30T05:17:00;99567.50;;;-0.21;100.00
46768;BME280;69007;48.978;18.066;2024-01-30T05:19:25;99544.22;;;-0.39;100.00
46768;BME280;69007;48.978;18.066;2024-01-30T05:21:50;99545.66;;;-0.44;100.00
46768;BME280;69007;48.978;18.066;2024-01-30T05:24:16;99563.94;;;-0.40;100.00
46768;BME280;69007;48.978;18.066;2024-01-30T05:26:41;99549.84;;;-0.42;100.00
46768;BME280;69007;48.978;18.066;2024-01-30T05:29:06;99575.00;;;-0.25;100.00
46768;BME280;69007;48.978;18.066;2024-01-30T05:31:33;99566.69;;;-0.31;100.00
46768;BME280;69007;48.978;18.066;2024-01-30T05:33:59;99572.47;;;-0.26;100.00
46768;BME280;69007;48.978;18.066;2024-01-30T05:36:25;99589.34;;;-0.26;100.00
46768;BME280;69007;48.978;18.066;2024-01-30T05:38:50;99565.81;;;-0.22;100.00
46768;BME280;69007;48.978;18.066;2024-01-30T05:41:15;99573.00;;;-0.23;100.00
46768;BME280;69007;48.978;18.066;2024-01-30T05:43:42;99544.31;;;-0.30;100.00
46768;BME280;69007;48.978;18.066;2024-01-30T05:46:07;99584.34;;;-0.11;100.00
46768;BME280;69007;48.978;18.066;2024-01-30T05:48:32;99566.59;;;-0.12;100.00
46768;BME280;69007;48.978;18.066;2024-01-30T05:51:00;99526.75;;;-0.33;100.00
46768;BME280;69007;48.978;18.066;2024-01-30T05:53:25;99562.78;;;-0.09;100.00
46768;BME280;69007;48.978;18.066;2024-01-30T05:55:51;99574.38;;;-0.19;100.00
46768;BME280;69007;48.978;18.066;2024-01-30T05:58:16;99568.44;;;-0.12;100.00
46768;BME280;69007;48.978;18.066;2024-01-30T06:00:41;99529.56;;;-0.34;100.00
46768;BME280;69007;48.978;18.066;2024-01-30T06:03:07;99559.72;;;-0.14;100.00
46768;BME280;69007;48.978;18.066;2024-01-30T06:05:33;99549.22;;;-0.26;100.00
46768;BME280;69007;48.978;18.066;2024-01-30T06:07:58;99561.28;;;-0.22;100.00
46768;BME280;69007;48.978;18.066;2024-01-30T06:10:23;99567.63;;;-0.13;100.00
46768;BME280;69007;48.978;18.066;2024-01-30T06:12:49;99553.75;;;-0.26;100.00
46768;BME280;69007;48.978;18.066;2024-01-30T06:15:14;99552.72;;;-0.25;100.00
46768;BME280;69007;48.978;18.066;2024-01-30T06:17:40;99547.69;;;-0.28;100.00
46768;BME280;69007;48.978;18.066;2024-01-30T06:20:06;99564.06;;;-0.13;100.00
46768;BME280;69007;48.978;18.066;2024-01-30T06:22:31;99566.00;;;-0.06;100.00
46768;BME280;69007;48.978;18.066;2024-01-30T06:24:57;99535.66;;;-0.14;100.00
46768;BME280;69007;48.978;18.066;2024-01-30T06:27:22;99573.84;;;0.06;100.00
46768;BME280;69007;48.978;18.066;2024-01-30T06:29:47;99545.03;;;-0.10;100.00
46768;BME280;69007;48.978;18.066;2024-01-30T06:32:13;99573.69;;;0.07;100.00
46768;BME280;69007;48.978;18.066;2024-01-30T06:34:38;99549.91;;;0.04;100.00
46768;BME280;69007;48.978;18.066;2024-01-30T06:37:05;99548.91;;;0.05;100.00
46768;BME280;69007;48.978;18.066;2024-01-30T06:39:30;99565.69;;;0.25;100.00
46768;BME280;69007;48.978;18.066;2024-01-30T06:41:56;99571.50;;;0.39;100.00
46768;BME280;69007;48.978;18.066;2024-01-30T06:44:21;99561.19;;;0.44;100.00
46768;BME280;69007;48.978;18.066;2024-01-30T06:46:47;99570.09;;;0.88;100.00
46768;BME280;69007;48.978;18.066;2024-01-30T06:49:12;99553.34;;;2.16;100.00
46768;BME280;69007;48.978;18.066;2024-01-30T06:51:38;99554.97;;;3.65;94.03
46768;BME280;69007;48.978;18.066;2024-01-30T06:54:03;99575.06;;;5.03;87.49
46768;BME280;69007;48.978;18.066;2024-01-30T06:56:29;99568.25;;;6.56;80.79
46768;BME280;69007;48.978;18.066;2024-01-30T06:58:55;99577.13;;;6.93;79.05
46768;BME280;69007;48.978;18.066;2024-01-30T07:01:20;99581.19;;;7.53;72.90
46768;BME280;69007;48.978;18.066;2024-01-30T07:03:46;99586.13;;;7.43;70.75
46768;BME280;69007;48.978;18.066;2024-01-30T07:06:11;99581.22;;;7.32;70.52
46768;BME280;69007;48.978;18.066;2024-01-30T07:08:37;99582.47;;;7.92;69.02
46768;BME280;69007;48.978;18.066;2024-01-30T07:11:07;99575.53;;;9.20;67.36
46768;BME280;69007;48.978;18.066;2024-01-30T07:13:34;99561.56;;;9.10;64.58
46768;BME280;69007;48.978;18.066;2024-01-30T07:15:59;99563.03;;;9.19;62.17
46768;BME280;69007;48.978;18.066;2024-01-30T07:18:25;99564.84;;;7.75;65.39
46768;BME280;69007;48.978;18.066;2024-01-30T07:20:50;99578.84;;;8.20;67.28
46768;BME280;69007;48.978;18.066;2024-01-30T07:23:16;99580.13;;;9.46;64.94
46768;BME280;69007;48.978;18.066;2024-01-30T07:25:46;99573.31;;;11.24;56.99
46768;BME280;69007;48.978;18.066;2024-01-30T07:28:13;99565.56;;;11.90;54.04
46768;BME280;69007;48.978;18.066;2024-01-30T07:30:41;99573.56;;;11.41;55.03
46768;BME280;69007;48.978;18.066;2024-01-30T07:33:07;99568.81;;;10.41;57.71
46768;BME280;69007;48.978;18.066;2024-01-30T07:35:34;99584.09;;;11.13;56.92
46768;BME280;69007;48.978;18.066;2024-01-30T07:37:59;99584.53;;;12.22;55.23
46768;BME280;69007;48.978;18.066;2024-01-30T07:40:24;99600.09;;;14.02;50.18
46768;BME280;69007;48.978;18.066;2024-01-30T07:42:50;99591.38;;;16.00;46.47
46768;BME280;69007;48.978;18.066;2024-01-30T07:45:15;99589.91;;;15.92;44.07
46768;BME280;69007;48.978;18.066;2024-01-30T07:47:41;99572.63;;;14.37;45.61
46768;BME280;69007;48.978;18.066;2024-01-30T07:50:08;99578.31;;;13.36;48.53
46768;BME280;69007;48.978;18.066;2024-01-30T07:52:33;99591.41;;;14.05;45.96
46768;BME280;69007;48.978;18.066;2024-01-30T07:54:59;99593.69;;;14.61;45.20
46768;BME280;69007;48.978;18.066;2024-01-30T07:57:24;99590.09;;;15.35;43.02
46768;BME280;69007;48.978;18.066;2024-01-30T07:59:50;99594.66;;;15.46;43.54
46768;BME280;69007;48.978;18.066;2024-01-30T08:02:15;99595.88;;;14.76;43.96
46768;BME280;69007;48.978;18.066;2024-01-30T08:04:41;99575.13;;;14.39;44.89
46768;BME280;69007;48.978;18.066;2024-01-30T08:07:06;99606.56;;;14.60;44.39
46768;BME280;69007;48.978;18.066;2024-01-30T08:09:32;99586.06;;;14.80;42.94
46768;BME280;69007;48.978;18.066;2024-01-30T08:11:57;99573.81;;;14.82;42.36
46768;BME280;69007;48.978;18.066;2024-01-30T08:14:23;99576.66;;;14.47;42.57
46768;BME280;69007;48.978;18.066;2024-01-30T08:16:48;99594.28;;;15.08;42.22
46768;BME280;69007;48.978;18.066;2024-01-30T08:19:14;99603.38;;;15.43;41.24
46768;BME280;69007;48.978;18.066;2024-01-30T08:21:40;99583.53;;;15.53;41.32
46768;BME280;69007;48.978;18.066;2024-01-30T08:24:06;99603.91;;;14.53;41.75
46768;BME280;69007;48.978;18.066;2024-01-30T08:26:32;99581.31;;;14.87;42.30
46768;BME280;69007;48.978;18.066;2024-01-30T08:28:58;99583.25;;;15.03;41.53
46768;BME280;69007;48.978;18.066;2024-01-30T08:31:23;99590.16;;;15.40;41.08
46768;BME280;69007;48.978;18.066;2024-01-30T08:33:49;99586.44;;;15.46;40.83
46768;BME280;69007;48.978;18.066;2024-01-30T08:36:15;99588.66;;;14.57;42.42
46768;BME280;69007;48.978;18.066;2024-01-30T08:38:40;99582.31;;;14.98;41.57
46768;BME280;69007;48.978;18.066;2024-01-30T08:41:07;99583.91;;;14.12;43.05
46768;BME280;69007;48.978;18.066;2024-01-30T08:43:33;99599.31;;;15.28;41.34
46768;BME280;69007;48.978;18.066;2024-01-30T08:45:59;99594.53;;;14.78;41.90
46768;BME280;69007;48.978;18.066;2024-01-30T08:48:25;99579.66;;;15.03;42.14
46768;BME280;69007;48.978;18.066;2024-01-30T08:50:51;99594.59;;;16.14;40.28
46768;BME280;69007;48.978;18.066;2024-01-30T08:53:16;99588.88;;;15.98;40.29
46768;BME280;69007;48.978;18.066;2024-01-30T08:55:41;99587.00;;;16.21;39.52
46768;BME280;69007;48.978;18.066;2024-01-30T08:58:07;99581.50;;;15.82;39.96
46768;BME280;69007;48.978;18.066;2024-01-30T09:00:33;99606.63;;;15.91;40.00
46768;BME280;69007;48.978;18.066;2024-01-30T09:02:58;99602.41;;;15.83;39.74
46768;BME280;69007;48.978;18.066;2024-01-30T09:05:24;99596.97;;;15.20;40.41
46768;BME280;69007;48.978;18.066;2024-01-30T09:07:49;99597.34;;;14.54;41.56
46768;BME280;69007;48.978;18.066;2024-01-30T09:10:14;99583.03;;;14.24;41.27
46768;BME280;69007;48.978;18.066;2024-01-30T09:12:40;99586.09;;;14.39;41.90
46768;BME280;69007;48.978;18.066;2024-01-30T09:15:05;99574.38;;;15.13;40.87
46768;BME280;69007;48.978;18.066;2024-01-30T09:17:31;99577.28;;;16.13;39.37
46768;BME280;69007;48.978;18.066;2024-01-30T09:19:56;99597.97;;;15.48;39.83
46768;BME280;69007;48.978;18.066;2024-01-30T09:22:21;99582.19;;;14.23;42.02
46768;BME280;69007;48.978;18.066;2024-01-30T09:24:47;99579.03;;;13.67;43.53
46768;BME280;69007;48.978;18.066;2024-01-30T09:27:12;99575.88;;;11.19;48.06
46768;BME280;69007;48.978;18.066;2024-01-30T09:29:37;99573.22;;;9.03;53.82
46768;BME280;69007;48.978;18.066;2024-01-30T09:32:04;99576.06;;;8.00;58.00
46768;BME280;69007;48.978;18.066;2024-01-30T09:34:30;99554.84;;;6.91;61.89
46768;BME280;69007;48.978;18.066;2024-01-30T09:36:55;99586.72;;;6.52;66.31
46768;BME280;69007;48.978;18.066;2024-01-30T09:39:20;99573.31;;;6.07;68.21
46768;BME280;69007;48.978;18.066;2024-01-30T09:41:56;99578.53;;;5.64;71.66
46768;BME280;69007;48.978;18.066;2024-01-30T09:44:24;99575.06;;;5.56;71.27
46768;BME280;69007;48.978;18.066;2024-01-30T09:46:51;99553.78;;;5.23;73.18
46768;BME280;69007;48.978;18.066;2024-01-30T09:49:17;99574.09;;;5.33;73.95
46768;BME280;69007;48.978;18.066;2024-01-30T09:51:44;99549.53;;;5.28;74.05
46768;BME280;69007;48.978;18.066;2024-01-30T09:54:14;99582.06;;;5.12;74.61
46768;BME280;69007;48.978;18.066;2024-01-30T09:56:40;99549.97;;;4.79;77.70
46768;BME280;69007;48.978;18.066;2024-01-30T09:59:05;99584.66;;;4.82;77.20
46768;BME280;69007;48.978;18.066;2024-01-30T10:01:31;99555.00;;;4.36;79.19
46768;BME280;69007;48.978;18.066;2024-01-30T10:03:57;99569.03;;;4.23;79.90
46768;BME280;69007;48.978;18.066;2024-01-30T10:06:24;99575.00;;;4.41;81.86
46768;BME280;69007;48.978;18.066;2024-01-30T10:08:49;99575.13;;;4.17;82.61
46768;BME280;69007;48.978;18.066;2024-01-30T10:11:15;99568.03;;;4.24;81.46
46768;BME280;69007;48.978;18.066;2024-01-30T10:13:40;99556.66;;;4.05;82.29
46768;BME280;69007;48.978;18.066;2024-01-30T10:16:06;99552.16;;;4.29;82.27
46768;BME280;69007;48.978;18.066;2024-01-30T10:18:31;99547.72;;;4.36;81.32
46768;BME280;69007;48.978;18.066;2024-01-30T10:20:57;99529.09;;;4.27;82.19
46768;BME280;69007;48.978;18.066;2024-01-30T10:23:22;99542.25;;;4.21;83.68
46768;BME280;69007;48.978;18.066;2024-01-30T10:25:48;99547.13;;;4.26;83.56
46768;BME280;69007;48.978;18.066;2024-01-30T10:28:13;99549.59;;;4.36;84.77
46768;BME280;69007;48.978;18.066;2024-01-30T10:30:38;99537.81;;;4.29;83.83
46768;BME280;69007;48.978;18.066;2024-01-30T10:33:04;99523.06;;;4.24;84.05
46768;BME280;69007;48.978;18.066;2024-01-30T10:35:29;99502.63;;;4.53;82.78
46768;BME280;69007;48.978;18.066;2024-01-30T10:37:56;99532.97;;;4.55;85.37
46768;BME280;69007;48.978;18.066;2024-01-30T10:40:27;99515.03;;;4.63;81.81
46768;BME280;69007;48.978;18.066;2024-01-30T10:42:55;99528.44;;;4.71;83.85
46768;BME280;69007;48.978;18.066;2024-01-30T10:45:22;99511.78;;;4.67;82.73
46768;BME280;69007;48.978;18.066;2024-01-30T10:47:49;99488.31;;;4.53;83.84
46768;BME280;69007;48.978;18.066;2024-01-30T10:50:15;99520.06;;;4.66;85.11
46768;BME280;69007;48.978;18.066;2024-01-30T10:52:41;99507.13;;;4.38;83.66
46768;BME280;69007;48.978;18.066;2024-01-30T10:55:10;99494.66;;;4.60;81.94
46768;BME280;69007;48.978;18.066;2024-01-30T10:57:36;99512.91;;;4.73;80.81
46768;BME280;69007;48.978;18.066;2024-01-30T11:00:04;99517.56;;;4.41;81.58
46768;BME280;69007;48.978;18.066;2024-01-30T11:02:42;99497.81;;;4.17;83.71
46768;BME280;69007;48.978;18.066;2024-01-30T11:05:09;99470.44;;;4.29;83.91
46768;BME280;69007;48.978;18.066;2024-01-30T11:07:34;99485.09;;;4.34;84.37
46768;BME280;69007;48.978;18.066;2024-01-30T11:10:01;99489.81;;;4.55;83.50
46768;BME280;69007;48.978;18.066;2024-01-30T11:12:27;99490.81;;;4.54;83.13
46768;BME280;69007;48.978;18.066;2024-01-30T11:15:06;99495.06;;;4.72;82.34
46768;BME280;69007;48.978;18.066;2024-01-30T11:22:42;99470.09;;;4.55;81.28
46768;BME280;69007;48.978;18.066;2024-01-30T11:25:13;99481.13;;;4.45;81.22
46768;BME280;69007;48.978;18.066;2024-01-30T11:27:41;99474.84;;;4.53;81.35
46768;BME280;69007;48.978;18.066;2024-01-30T11:30:07;99477.41;;;4.46;82.33
46768;BME280;69007;48.978;18.066;2024-01-30T11:32:33;99451.25;;;4.70;80.83
46768;BME280;69007;48.978;18.066;2024-01-30T11:34:59;99454.22;;;4.75;80.94
46768;BME280;69007;48.978;18.066;2024-01-30T11:37:25;99453.69;;;4.79;80.11
46768;BME280;69007;48.978;18.066;2024-01-30T11:39:53;99465.03;;;4.75;80.09
46768;BME280;69007;48.978;18.066;2024-01-30T11:42:19;99482.19;;;4.59;81.50
46768;BME280;69007;48.978;18.066;2024-01-30T11:44:47;99473.25;;;4.58;81.70
46768;BME280;69007;48.978;18.066;2024-01-30T11:47:14;99460.16;;;4.55;81.35
46768;BME280;69007;48.978;18.066;2024-01-30T11:49:40;99439.81;;;4.30;81.43
46768;BME280;69007;48.978;18.066;2024-01-30T11:52:05;99461.47;;;4.36;82.42
46768;BME280;69007;48.978;18.066;2024-01-30T11:54:31;99431.84;;;4.13;85.31
46768;BME280;69007;48.978;18.066;2024-01-30T11:56:56;99455.50;;;4.03;86.95
46768;BME280;69007;48.978;18.066;2024-01-30T11:59:22;99446.38;;;4.27;84.65
46768;BME280;69007;48.978;18.066;2024-01-30T12:01:47;99431.44;;;4.24;82.73
46768;BME280;69007;48.978;18.066;2024-01-30T12:04:13;99411.16;;;4.29;82.18
46768;BME280;69007;48.978;18.066;2024-01-30T12:06:39;99432.59;;;4.22;83.26
46768;BME280;69007;48.978;18.066;2024-01-30T12:09:04;99424.16;;;4.25;84.10
46768;BME280;69007;48.978;18.066;2024-01-30T12:11:30;99424.97;;;4.49;82.56
46768;BME280;69007;48.978;18.066;2024-01-30T12:13:56;99436.09;;;4.31;83.08
46768;BME280;69007;48.978;18.066;2024-01-30T12:16:22;99401.06;;;4.31;82.48
46768;BME280;69007;48.978;18.066;2024-01-30T12:18:48;99400.56;;;4.27;82.19
46768;BME280;69007;48.978;18.066;2024-01-30T12:21:16;99396.31;;;4.33;82.29
46768;BME280;69007;48.978;18.066;2024-01-30T12:23:42;99425.38;;;4.46;81.39
46768;BME280;69007;48.978;18.066;2024-01-30T12:26:08;99404.63;;;4.46;80.83
46768;BME280;69007;48.978;18.066;2024-01-30T12:28:33;99415.31;;;4.39;81.13
46768;BME280;69007;48.978;18.066;2024-01-30T12:31:05;99415.38;;;4.31;82.27
46768;BME280;69007;48.978;18.066;2024-01-30T12:33:31;99387.59;;;4.31;82.18
46768;BME280;69007;48.978;18.066;2024-01-30T12:35:57;99381.09;;;4.40;80.59
46768;BME280;69007;48.978;18.066;2024-01-30T12:38:23;99393.13;;;4.52;80.41
46768;BME280;69007;48.978;18.066;2024-01-30T12:40:53;99393.78;;;4.54;80.37
46768;BME280;69007;48.978;18.066;2024-01-30T12:43:19;99370.31;;;4.40;79.68
46768;BME280;69007;48.978;18.066;2024-01-30T12:45:44;99373.06;;;4.32;80.62
46768;BME280;69007;48.978;18.066;2024-01-30T12:48:09;99391.34;;;4.45;79.88